createdAt,value
2019-03-31T00:02:13.476Z,17.10
2019-03-31T00:04:39.631Z,17.20
2019-03-31T00:07:05.781Z,17.20
2019-03-31T00:09:31.934Z,17.10
2019-03-31T00:11:58.089Z,17.20
2019-03-31T00:14:24.247Z,17.20
2019-03-31T00:16:52.419Z,17.10
2019-03-31T00:19:16.780Z,17.20
2019-03-31T00:21:42.930Z,17.20
2019-03-31T00:24:09.083Z,17.20
2019-03-31T00:26:35.228Z,17.10
2019-03-31T00:29:02.160Z,17.10
2019-03-31T00:31:28.317Z,17.10
2019-03-31T00:33:54.497Z,17.10
2019-03-31T00:36:20.649Z,17.10
2019-03-31T00:38:46.821Z,17.10
2019-03-31T00:41:12.973Z,17.10
2019-03-31T00:43:39.136Z,17.10
2019-03-31T00:46:05.285Z,17.10
2019-03-31T00:48:31.456Z,17.10
2019-03-31T00:50:57.604Z,17.10
2019-03-31T00:53:23.748Z,17.10
2019-03-31T00:55:49.901Z,17.10
2019-03-31T00:58:16.056Z,17.10
2019-03-31T01:00:42.213Z,17.10
2019-03-31T01:03:08.370Z,17.10
2019-03-31T01:05:34.516Z,17.10
2019-03-31T01:08:00.669Z,17.10
2019-03-31T01:10:27.581Z,17.10
2019-03-31T01:12:53.733Z,17.10
2019-03-31T01:15:19.876Z,17.10
2019-03-31T01:17:46.021Z,17.00
2019-03-31T01:20:12.178Z,17.00
2019-03-31T01:22:38.325Z,17.10
2019-03-31T01:25:04.472Z,17.00
2019-03-31T01:27:30.631Z,17.00
2019-03-31T01:29:56.783Z,17.00
2019-03-31T01:32:27.241Z,17.00
2019-03-31T01:34:53.397Z,17.00
2019-03-31T01:37:20.316Z,17.00
2019-03-31T01:39:45.780Z,17.00
2019-03-31T01:42:12.028Z,17.00
2019-03-31T01:44:38.132Z,17.00
2019-03-31T01:47:04.277Z,17.00
2019-03-31T01:49:30.437Z,17.00
2019-03-31T01:51:56.589Z,17.00
2019-03-31T01:54:22.745Z,17.00
2019-03-31T01:56:48.940Z,17.00
2019-03-31T01:59:15.096Z,17.00
2019-03-31T02:01:43.336Z,17.00
2019-03-31T02:04:09.492Z,17.00
2019-03-31T02:06:35.651Z,17.00
2019-03-31T02:09:01.797Z,17.00
2019-03-31T02:11:27.995Z,17.00
2019-03-31T02:13:54.296Z,17.00
2019-03-31T02:16:20.460Z,16.90
2019-03-31T02:18:46.613Z,17.00
2019-03-31T02:21:12.777Z,17.00
2019-03-31T02:23:39.693Z,16.90
2019-03-31T02:26:05.861Z,16.90
2019-03-31T02:28:32.009Z,16.90
2019-03-31T02:30:58.170Z,17.00
2019-03-31T02:33:24.861Z,17.00
2019-03-31T02:35:51.033Z,16.90
2019-03-31T02:38:17.197Z,17.00
2019-03-31T02:40:43.354Z,17.00
2019-03-31T02:43:09.513Z,16.90
2019-03-31T02:45:35.665Z,16.90
2019-03-31T02:48:01.840Z,17.00
2019-03-31T02:50:27.997Z,16.90
2019-03-31T02:52:54.145Z,16.90
2019-03-31T02:55:20.309Z,16.90
2019-03-31T02:57:46.459Z,16.90
2019-03-31T03:00:12.619Z,16.90
2019-03-31T03:02:42.291Z,16.90
2019-03-31T03:05:19.020Z,16.90
2019-03-31T03:07:31.157Z,16.90
2019-03-31T03:09:57.310Z,16.90
2019-03-31T03:12:23.482Z,16.90
2019-03-31T03:14:49.629Z,16.90
2019-03-31T03:17:15.808Z,16.90
2019-03-31T03:19:41.957Z,16.90
2019-03-31T03:22:08.886Z,16.90
2019-03-31T03:24:35.042Z,16.90
2019-03-31T03:27:01.208Z,16.90
2019-03-31T03:29:27.370Z,16.80
2019-03-31T03:31:53.523Z,16.90
2019-03-31T03:34:19.697Z,16.90
2019-03-31T03:36:45.846Z,16.90
2019-03-31T03:39:11.993Z,16.90
2019-03-31T03:41:38.155Z,16.90
2019-03-31T03:44:04.303Z,16.90
2019-03-31T03:46:30.452Z,16.90
2019-03-31T03:48:56.640Z,16.90
2019-03-31T03:51:22.798Z,16.90
2019-03-31T03:53:51.240Z,16.80
2019-03-31T03:56:17.393Z,16.90
2019-03-31T03:58:43.544Z,16.80
2019-03-31T04:01:09.697Z,16.80
2019-03-31T04:03:36.613Z,16.90
2019-03-31T04:06:02.780Z,16.80
2019-03-31T04:08:29.093Z,16.80
2019-03-31T04:10:55.242Z,16.90
2019-03-31T04:13:21.410Z,16.80
2019-03-31T04:15:47.572Z,16.80
2019-03-31T04:18:13.745Z,16.80
2019-03-31T04:20:39.915Z,16.80
2019-03-31T04:23:06.885Z,16.80
2019-03-31T04:25:33.032Z,16.80
2019-03-31T04:27:59.208Z,16.80
2019-03-31T04:30:25.361Z,16.80
2019-03-31T04:32:51.518Z,16.80
2019-03-31T04:35:17.674Z,16.80
2019-03-31T04:37:44.598Z,16.80
2019-03-31T04:40:10.754Z,16.80
2019-03-31T04:42:36.924Z,16.80
2019-03-31T04:45:03.072Z,16.80
2019-03-31T04:47:29.224Z,16.80
2019-03-31T04:49:56.140Z,16.80
2019-03-31T04:52:22.306Z,16.80
2019-03-31T04:54:48.481Z,16.80
2019-03-31T04:57:14.625Z,16.80
2019-03-31T04:59:40.769Z,16.80
2019-03-31T05:02:07.697Z,16.80
2019-03-31T05:04:33.867Z,16.80
2019-03-31T05:07:00.028Z,16.80
2019-03-31T05:09:26.188Z,16.70
2019-03-31T05:11:52.338Z,16.80
2019-03-31T05:14:18.513Z,16.80
2019-03-31T05:16:44.656Z,16.80
2019-03-31T05:19:10.823Z,16.70
2019-03-31T05:21:36.968Z,16.70
2019-03-31T05:24:03.141Z,16.80
2019-03-31T05:26:29.285Z,16.80
2019-03-31T05:28:55.460Z,16.80
2019-03-31T05:31:21.612Z,16.70
2019-03-31T05:33:47.760Z,16.80
2019-03-31T05:36:13.911Z,16.80
2019-03-31T05:38:40.063Z,16.70
2019-03-31T05:41:06.219Z,16.70
2019-03-31T05:43:33.149Z,16.80
2019-03-31T05:45:59.296Z,16.70
2019-03-31T05:48:25.464Z,16.70
2019-03-31T05:50:51.614Z,16.70
2019-03-31T05:53:17.766Z,16.70
2019-03-31T05:55:44.681Z,16.70
2019-03-31T05:58:10.841Z,16.70
2019-03-31T06:00:36.993Z,16.70
2019-03-31T06:03:03.141Z,16.70
2019-03-31T06:05:29.288Z,16.70
2019-03-31T06:07:55.446Z,16.70
2019-03-31T06:10:21.596Z,16.80
2019-03-31T06:12:47.749Z,16.70
2019-03-31T06:15:13.913Z,16.70
2019-03-31T06:17:40.069Z,16.70
2019-03-31T06:20:06.221Z,16.30
2019-03-31T06:22:32.373Z,16.10
2019-03-31T06:24:58.533Z,16.10
2019-03-31T06:27:24.689Z,16.20
2019-03-31T06:29:50.856Z,16.40
2019-03-31T06:32:17.010Z,16.40
2019-03-31T06:34:47.727Z,16.60
2019-03-31T06:37:10.133Z,16.80
2019-03-31T06:39:36.304Z,16.80
2019-03-31T06:42:02.461Z,16.90
2019-03-31T06:44:28.649Z,17.00
2019-03-31T06:46:54.799Z,17.10
2019-03-31T06:49:21.119Z,17.20
2019-03-31T06:51:47.273Z,17.30
2019-03-31T06:54:13.435Z,17.30
2019-03-31T06:56:40.364Z,17.40
2019-03-31T06:59:06.520Z,17.40
2019-03-31T07:01:32.673Z,17.50
2019-03-31T07:03:58.825Z,17.60
2019-03-31T07:06:24.973Z,17.60
2019-03-31T07:08:51.125Z,17.70
2019-03-31T07:11:17.277Z,17.70
2019-03-31T07:13:43.424Z,17.80
2019-03-31T07:16:09.576Z,17.80
2019-03-31T07:18:35.730Z,17.90
2019-03-31T07:21:01.882Z,17.90
2019-03-31T07:23:28.045Z,18.00
2019-03-31T07:25:54.210Z,18.00
2019-03-31T07:28:20.580Z,18.00
2019-03-31T07:30:46.733Z,18.00
2019-03-31T07:33:12.879Z,18.00
2019-03-31T07:35:39.250Z,18.00
2019-03-31T07:38:05.233Z,18.10
2019-03-31T07:40:31.463Z,18.10
2019-03-31T07:42:57.599Z,18.20
2019-03-31T07:45:23.777Z,18.20
2019-03-31T07:47:49.930Z,18.20
2019-03-31T07:50:16.075Z,18.10
2019-03-31T07:52:42.228Z,18.30
2019-03-31T07:55:09.164Z,18.30
2019-03-31T07:57:35.334Z,18.30
2019-03-31T08:00:01.540Z,18.30
2019-03-31T08:02:27.680Z,18.40
2019-03-31T08:04:53.844Z,18.40
2019-03-31T08:07:19.996Z,18.40
2019-03-31T08:09:46.148Z,18.40
2019-03-31T08:12:12.297Z,18.40
2019-03-31T08:14:39.204Z,18.50
2019-03-31T08:17:05.354Z,18.40
2019-03-31T08:19:31.497Z,18.40
2019-03-31T08:21:57.646Z,18.50
2019-03-31T08:24:23.789Z,18.50
2019-03-31T08:26:49.941Z,18.50
2019-03-31T08:29:16.098Z,18.50
2019-03-31T08:31:42.248Z,18.60
2019-03-31T08:34:08.388Z,18.60
2019-03-31T08:36:35.360Z,18.60
2019-03-31T08:39:01.511Z,18.60
2019-03-31T08:41:27.664Z,18.60
2019-03-31T08:43:53.832Z,18.60
2019-03-31T08:46:19.983Z,18.60
2019-03-31T08:48:47.845Z,18.60
2019-03-31T08:51:14.003Z,18.70
2019-03-31T08:53:40.152Z,18.80
2019-03-31T08:56:08.775Z,18.90
2019-03-31T08:58:32.536Z,18.80
2019-03-31T09:00:58.691Z,18.90
2019-03-31T09:03:24.954Z,18.90
2019-03-31T09:06:01.539Z,19.00
2019-03-31T09:08:17.487Z,19.00
2019-03-31T09:10:43.707Z,19.00
2019-03-31T09:13:09.858Z,19.00
2019-03-31T09:15:36.009Z,19.00
2019-03-31T09:18:02.158Z,19.10
2019-03-31T09:20:28.315Z,19.10
2019-03-31T09:22:54.470Z,19.10
2019-03-31T09:25:20.613Z,19.10
2019-03-31T09:27:46.773Z,19.10
2019-03-31T09:30:12.927Z,19.20
2019-03-31T09:32:39.089Z,19.20
2019-03-31T09:35:05.243Z,19.20
2019-03-31T09:37:32.164Z,19.30
2019-03-31T09:39:58.309Z,19.30
2019-03-31T09:42:24.457Z,19.30
2019-03-31T09:44:50.605Z,19.30
2019-03-31T09:47:16.742Z,19.30
2019-03-31T09:49:42.980Z,19.40
2019-03-31T09:52:09.132Z,19.40
2019-03-31T09:54:35.290Z,19.40
2019-03-31T09:57:01.447Z,19.40
2019-03-31T09:59:27.601Z,19.40
2019-03-31T10:01:53.942Z,19.40
2019-03-31T10:04:20.109Z,19.40
2019-03-31T10:06:46.259Z,19.40
2019-03-31T10:09:12.411Z,19.50
2019-03-31T10:11:38.560Z,19.40
2019-03-31T10:14:04.719Z,19.30
2019-03-31T10:16:30.868Z,19.40
2019-03-31T10:18:57.021Z,19.30
2019-03-31T10:21:23.177Z,19.40
2019-03-31T10:23:49.329Z,19.30
2019-03-31T10:26:17.635Z,19.30
2019-03-31T10:28:41.686Z,19.30
2019-03-31T10:31:07.842Z,19.40
2019-03-31T10:33:34.009Z,19.30
2019-03-31T10:36:00.156Z,19.40
2019-03-31T10:38:26.311Z,19.40
2019-03-31T10:40:52.471Z,19.50
2019-03-31T10:43:18.636Z,19.40
2019-03-31T10:45:44.786Z,19.40
2019-03-31T10:48:20.485Z,19.40
2019-03-31T10:50:37.134Z,19.40
2019-03-31T10:53:03.294Z,19.40
2019-03-31T10:55:29.456Z,19.40
2019-03-31T10:57:55.631Z,19.40
2019-03-31T11:00:21.856Z,19.50
2019-03-31T11:02:48.058Z,19.50
2019-03-31T11:05:14.219Z,19.50
2019-03-31T11:07:40.381Z,19.50
2019-03-31T11:10:07.097Z,19.50
2019-03-31T11:12:33.257Z,19.50
2019-03-31T11:14:59.417Z,19.60
2019-03-31T11:17:25.572Z,19.50
2019-03-31T11:19:51.723Z,19.60
2019-03-31T11:22:17.876Z,19.50
2019-03-31T11:24:44.034Z,19.60
2019-03-31T11:27:10.181Z,19.60
2019-03-31T11:29:36.376Z,19.60
2019-03-31T11:32:02.534Z,19.50
2019-03-31T11:34:28.702Z,19.60
2019-03-31T11:36:54.853Z,19.60
2019-03-31T11:39:21.006Z,19.60
2019-03-31T11:41:47.161Z,19.60
2019-03-31T11:44:13.324Z,19.60
2019-03-31T11:46:39.495Z,19.70
2019-03-31T11:49:05.732Z,19.70
2019-03-31T11:51:31.886Z,19.60
2019-03-31T11:53:58.065Z,19.70
2019-03-31T11:56:24.228Z,19.70
2019-03-31T11:58:50.389Z,19.70
2019-03-31T12:01:16.533Z,19.60
2019-03-31T12:03:42.688Z,19.60
2019-03-31T12:06:11.190Z,19.70
2019-03-31T12:08:35.053Z,19.60
2019-03-31T12:11:01.222Z,19.60
2019-03-31T12:13:27.372Z,19.60
2019-03-31T12:15:56.781Z,19.70
2019-03-31T12:18:22.926Z,19.70
2019-03-31T12:20:49.092Z,19.70
2019-03-31T12:23:16.031Z,19.80
2019-03-31T12:25:42.194Z,19.80
2019-03-31T12:28:08.348Z,19.80
2019-03-31T12:30:34.530Z,19.80
2019-03-31T12:33:00.691Z,19.80
2019-03-31T12:35:26.868Z,19.80
2019-03-31T12:37:53.013Z,19.80
2019-03-31T12:40:19.187Z,19.80
2019-03-31T12:45:23.077Z,19.70
2019-03-31T12:47:49.228Z,19.80
2019-03-31T12:50:15.387Z,19.80
2019-03-31T12:52:47.422Z,19.80
2019-03-31T12:55:07.743Z,19.90
2019-03-31T12:57:33.888Z,19.90
2019-03-31T13:00:00.048Z,19.90
2019-03-31T13:02:26.230Z,19.80
2019-03-31T13:04:52.388Z,19.90
2019-03-31T13:07:18.547Z,19.90
2019-03-31T13:09:44.706Z,19.90
2019-03-31T13:12:10.848Z,19.80
2019-03-31T13:14:37.022Z,19.90
2019-03-31T13:17:03.176Z,19.90
2019-03-31T13:19:29.344Z,19.90
2019-03-31T13:21:55.503Z,19.90
2019-03-31T13:24:21.897Z,19.90
2019-03-31T13:26:48.050Z,19.90
2019-03-31T13:29:14.197Z,19.90
2019-03-31T13:31:43.826Z,19.90
2019-03-31T13:36:48.588Z,20.00
2019-03-31T13:39:14.883Z,20.00
2019-03-31T13:41:41.109Z,19.90
2019-03-31T13:44:07.279Z,19.90
2019-03-31T13:46:33.453Z,20.00
2019-03-31T13:48:59.604Z,20.00
2019-03-31T13:51:25.771Z,19.90
2019-03-31T13:53:51.935Z,19.90
2019-03-31T13:56:18.391Z,20.00
2019-03-31T13:58:44.265Z,20.00
2019-03-31T14:01:10.528Z,19.90
2019-03-31T14:03:36.612Z,20.00
2019-03-31T14:06:02.771Z,20.10
2019-03-31T14:08:28.938Z,20.10
2019-03-31T14:10:55.863Z,20.10
2019-03-31T14:13:22.020Z,20.10
2019-03-31T14:15:48.188Z,20.20
2019-03-31T14:18:14.337Z,20.20
2019-03-31T14:20:40.574Z,20.20
2019-03-31T14:23:06.692Z,20.20
2019-03-31T14:25:33.605Z,20.30
2019-03-31T14:27:59.758Z,20.30
2019-03-31T14:30:26.590Z,20.20
2019-03-31T14:32:52.746Z,20.20
2019-03-31T14:35:18.892Z,20.30
2019-03-31T14:37:45.085Z,20.20
2019-03-31T14:40:11.246Z,20.30
2019-03-31T14:42:37.397Z,20.30
2019-03-31T14:45:03.605Z,20.30
2019-03-31T14:47:29.753Z,20.30
2019-03-31T14:49:55.944Z,20.30
2019-03-31T14:52:27.705Z,20.30
2019-03-31T14:54:48.290Z,20.30
2019-03-31T14:57:14.448Z,20.40
2019-03-31T14:59:40.598Z,20.40
2019-03-31T15:02:06.764Z,20.40
2019-03-31T15:04:32.929Z,20.40
2019-03-31T15:06:59.317Z,20.50
2019-03-31T15:09:25.503Z,20.50
2019-03-31T15:11:51.675Z,20.60
2019-03-31T15:14:17.824Z,20.60
2019-03-31T15:16:43.986Z,20.50
2019-03-31T15:19:10.134Z,20.40
2019-03-31T15:21:43.994Z,20.40
2019-03-31T15:24:02.481Z,20.30
2019-03-31T15:26:28.624Z,20.30
2019-03-31T15:28:54.777Z,20.40
2019-03-31T15:31:20.957Z,20.40
2019-03-31T15:33:47.109Z,20.40
2019-03-31T15:36:13.257Z,20.40
2019-03-31T15:38:39.411Z,20.40
2019-03-31T15:41:05.559Z,20.40
2019-03-31T15:43:31.717Z,20.40
2019-03-31T15:45:57.857Z,20.40
2019-03-31T15:48:24.038Z,20.40
2019-03-31T15:50:50.353Z,20.40
2019-03-31T15:53:16.549Z,20.40
2019-03-31T15:55:42.722Z,20.40
2019-03-31T15:58:08.871Z,20.50
2019-03-31T16:00:35.020Z,20.40
2019-03-31T16:03:01.178Z,20.40
2019-03-31T16:05:27.325Z,20.40
2019-03-31T16:07:53.475Z,20.50
2019-03-31T16:10:19.629Z,20.50
2019-03-31T16:12:45.779Z,20.50
2019-03-31T16:15:11.924Z,20.60
2019-03-31T16:17:38.181Z,20.70
2019-03-31T16:20:04.329Z,20.60
2019-03-31T16:22:30.485Z,20.70
2019-03-31T16:24:56.665Z,20.70
2019-03-31T16:27:22.851Z,20.80
2019-03-31T16:29:49.080Z,20.90
2019-03-31T16:32:15.379Z,20.90
2019-03-31T16:34:41.545Z,20.80
2019-03-31T16:37:07.842Z,20.90
2019-03-31T16:39:37.885Z,20.90
2019-03-31T16:42:00.226Z,20.90
2019-03-31T16:44:26.394Z,20.90
2019-03-31T16:46:52.551Z,21.00
2019-03-31T16:49:18.705Z,21.00
2019-03-31T16:51:44.877Z,21.00
2019-03-31T16:54:11.032Z,21.00
2019-03-31T16:56:37.229Z,21.00
2019-03-31T16:59:03.387Z,21.10
2019-03-31T17:01:30.327Z,21.10
2019-03-31T17:03:56.540Z,21.10
2019-03-31T17:06:22.712Z,21.10
2019-03-31T17:08:48.861Z,21.20
2019-03-31T17:11:15.098Z,21.20
2019-03-31T17:13:41.263Z,21.30
2019-03-31T17:16:07.409Z,21.30
2019-03-31T17:18:33.590Z,21.30
2019-03-31T17:20:59.736Z,20.80
2019-03-31T17:23:25.905Z,20.40
2019-03-31T17:25:52.065Z,20.30
2019-03-31T17:28:18.251Z,20.30
2019-03-31T17:30:44.413Z,20.40
2019-03-31T17:33:10.613Z,20.50
2019-03-31T17:35:37.550Z,20.60
2019-03-31T17:38:03.714Z,20.60
2019-03-31T17:40:30.632Z,20.60
2019-03-31T17:42:56.778Z,20.60
2019-03-31T17:45:22.923Z,20.50
2019-03-31T17:47:49.096Z,20.50
2019-03-31T17:50:15.251Z,20.40
2019-03-31T17:52:41.397Z,20.40
2019-03-31T17:55:07.575Z,20.30
2019-03-31T17:57:33.752Z,20.30
2019-03-31T17:59:59.916Z,20.30
2019-03-31T18:02:26.081Z,20.20
2019-03-31T18:04:52.253Z,20.10
2019-03-31T18:07:18.415Z,20.10
2019-03-31T18:09:44.590Z,20.00
2019-03-31T18:12:10.745Z,20.00
2019-03-31T18:14:37.005Z,20.00
2019-03-31T18:17:03.173Z,19.90
2019-03-31T18:19:29.341Z,19.90
2019-03-31T18:21:55.501Z,19.80
2019-03-31T18:24:21.671Z,19.80
2019-03-31T18:26:47.829Z,19.80
2019-03-31T18:29:14.012Z,19.80
2019-03-31T18:31:40.164Z,19.70
2019-03-31T18:34:06.325Z,19.70
2019-03-31T18:36:36.851Z,19.70
2019-03-31T18:38:58.673Z,19.70
2019-03-31T18:41:24.825Z,19.60
2019-03-31T18:43:51.976Z,19.60
2019-03-31T18:46:17.163Z,19.60
2019-03-31T18:48:43.317Z,19.60
2019-03-31T18:51:09.471Z,19.50
2019-03-31T18:53:37.496Z,19.50
2019-03-31T18:56:03.654Z,19.50
2019-03-31T18:58:29.800Z,19.40
2019-03-31T19:00:55.978Z,19.40
2019-03-31T19:03:22.124Z,19.30
2019-03-31T19:05:48.296Z,19.30
2019-03-31T19:08:15.210Z,19.30
2019-03-31T19:10:49.280Z,19.30
2019-03-31T19:13:07.679Z,19.30
2019-03-31T19:15:33.829Z,19.30
2019-03-31T19:18:03.922Z,19.20
2019-03-31T19:20:29.957Z,19.20
2019-03-31T19:22:56.126Z,19.20
2019-03-31T19:25:22.281Z,19.20
2019-03-31T19:27:48.437Z,19.20
2019-03-31T19:30:15.849Z,19.10
2019-03-31T19:32:41.576Z,19.10
2019-03-31T19:35:07.728Z,19.10
2019-03-31T19:37:39.786Z,19.10
2019-03-31T19:40:05.947Z,19.10
2019-03-31T19:42:32.114Z,19.10
2019-03-31T19:44:58.269Z,19.00
2019-03-31T19:47:24.444Z,19.00
2019-03-31T19:49:50.595Z,19.00
2019-03-31T19:52:16.752Z,19.00
2019-03-31T19:54:42.907Z,19.00
2019-03-31T19:57:11.940Z,19.00
2019-03-31T19:59:35.263Z,19.00
2019-03-31T20:02:01.623Z,18.90
2019-03-31T20:04:27.802Z,18.90
2019-03-31T20:06:53.956Z,18.90
2019-03-31T20:09:20.108Z,18.90
2019-03-31T20:11:46.265Z,18.90
2019-03-31T20:14:12.419Z,18.90
2019-03-31T20:16:38.565Z,18.90
2019-03-31T20:19:04.736Z,18.90
2019-03-31T20:21:32.199Z,18.80
2019-03-31T20:23:57.104Z,18.80
2019-03-31T20:26:23.248Z,18.80
2019-03-31T20:28:50.166Z,18.80
2019-03-31T20:31:16.327Z,18.80
2019-03-31T20:33:42.477Z,18.70
2019-03-31T20:36:08.625Z,18.70
2019-03-31T20:38:34.847Z,18.70
2019-03-31T20:41:01.004Z,18.70
2019-03-31T20:43:27.160Z,18.70
2019-03-31T20:45:53.307Z,18.60
2019-03-31T20:48:19.463Z,18.60
2019-03-31T20:50:45.613Z,18.60
2019-03-31T20:53:11.760Z,18.60
2019-03-31T20:55:38.676Z,18.50
2019-03-31T20:58:04.833Z,18.50
2019-03-31T21:00:30.981Z,18.50
2019-03-31T21:02:57.134Z,18.50
2019-03-31T21:05:23.307Z,18.50
2019-03-31T21:07:50.221Z,18.50
2019-03-31T21:10:16.382Z,18.40
2019-03-31T21:12:42.538Z,18.50
2019-03-31T21:15:08.703Z,18.40
2019-03-31T21:17:34.850Z,18.40
2019-03-31T21:20:01.021Z,18.40
2019-03-31T21:22:27.173Z,18.40
2019-03-31T21:24:53.348Z,18.40
2019-03-31T21:27:19.501Z,18.40
2019-03-31T21:29:45.648Z,18.40
2019-03-31T21:32:11.800Z,18.40
2019-03-31T21:34:37.954Z,18.40
2019-03-31T21:37:04.109Z,18.30
2019-03-31T21:39:30.260Z,18.30
2019-03-31T21:41:56.478Z,18.30
2019-03-31T21:44:22.617Z,18.30
2019-03-31T21:46:48.761Z,18.30
2019-03-31T21:49:14.921Z,18.30
2019-03-31T21:51:41.240Z,18.30
2019-03-31T21:54:08.158Z,18.30
2019-03-31T21:56:34.324Z,18.20
2019-03-31T21:59:00.477Z,18.20
2019-03-31T22:01:26.792Z,18.20
2019-03-31T22:03:52.937Z,18.20
2019-03-31T22:06:19.100Z,18.20
2019-03-31T22:08:45.264Z,18.10
2019-03-31T22:11:11.433Z,18.10
2019-03-31T22:13:37.585Z,18.10
2019-03-31T22:16:04.167Z,18.20
2019-03-31T22:18:30.317Z,18.20
2019-03-31T22:20:56.461Z,18.10
2019-03-31T22:23:22.622Z,18.10
2019-03-31T22:25:49.547Z,18.10
2019-03-31T22:28:15.704Z,18.10
2019-03-31T22:30:41.868Z,18.10
2019-03-31T22:33:08.025Z,18.10
2019-03-31T22:35:34.185Z,18.10
2019-03-31T22:38:02.425Z,18.00
2019-03-31T22:40:26.545Z,18.00
2019-03-31T22:42:52.712Z,18.00
2019-03-31T22:45:18.864Z,18.00
2019-03-31T22:47:45.025Z,17.90
2019-03-31T22:50:11.179Z,18.00
2019-03-31T22:52:37.358Z,17.90
2019-03-31T22:55:04.281Z,17.90
2019-03-31T22:57:30.437Z,17.90
2019-03-31T22:59:56.583Z,17.90
2019-03-31T23:02:22.754Z,17.90
2019-03-31T23:04:48.900Z,17.90
2019-03-31T23:07:15.072Z,17.90
2019-03-31T23:09:41.228Z,17.90
2019-03-31T23:12:07.381Z,17.90
2019-03-31T23:14:33.542Z,17.90
2019-03-31T23:16:59.699Z,17.80
2019-03-31T23:19:25.849Z,17.80
2019-03-31T23:21:52.011Z,17.90
2019-03-31T23:24:18.175Z,17.80
2019-03-31T23:26:45.263Z,17.80
2019-03-31T23:29:11.414Z,17.80
2019-03-31T23:31:37.563Z,17.70
2019-03-31T23:34:03.726Z,17.80
2019-03-31T23:36:29.897Z,17.70
2019-03-31T23:38:58.407Z,17.70
2019-03-31T23:41:23.009Z,17.70
2019-03-31T23:43:49.179Z,17.70
2019-03-31T23:46:15.336Z,17.70
2019-03-31T23:48:41.510Z,17.70
2019-03-31T23:51:07.667Z,17.70
2019-03-31T23:53:34.600Z,17.70
2019-03-31T23:56:00.745Z,17.70
2019-03-31T23:58:26.919Z,17.70
